Time;durP1;ratioP1;P1;durP2;ratioP2;P2;SDS_P1;SDS_P2;PMS_P1;PMS_P2;Temp;Humidity;BMP_temperature;BMP_pressure;BME280_temperature;BME280_humidity;BME280_pressure;Samples;Min_cycle;Max_cycle;Signal;HPM_P1;HPM_P2
2023/04/20 00:01:53;;;;;;;;;5.00;3.00;;;;;19.75;35.68;101149.25;5036307;28;45377;-37
2023/04/20 00:04:19;;;;;;;;;4.00;3.00;;;;;19.74;35.81;101147.56;5037390;28;45328;-40
2023/04/20 00:06:44;;;;;;;;;4.00;3.25;;;;;19.73;35.55;101143.25;5039718;28;47263;-37
2023/04/20 00:09:12;;;;;;;;;3.50;3.50;;;;;19.74;35.69;101144.91;5039805;28;45415;-36
2023/04/20 00:11:37;;;;;;;;;4.00;4.00;;;;;19.73;35.72;101133.56;5039666;28;45347;-37
2023/04/20 00:14:03;;;;;;;;;3.00;2.50;;;;;19.73;35.80;101138.00;5039780;28;45442;-36
2023/04/20 00:16:28;;;;;;;;;5.00;2.75;;;;;19.72;35.88;101129.22;5039453;28;45427;-37
2023/04/20 00:18:53;;;;;;;;;4.25;3.00;;;;;19.72;35.71;101131.84;5039364;28;45346;-37
2023/04/20 00:21:22;;;;;;;;;4.25;2.00;;;;;19.72;35.83;101133.66;5039511;28;45410;-37
2023/04/20 00:23:48;;;;;;;;;6.25;4.00;;;;;19.72;35.47;101133.66;5039548;28;45311;-38
2023/04/20 00:26:13;;;;;;;;;4.75;4.75;;;;;19.72;35.40;101129.22;5039694;28;46435;-38
2023/04/20 00:28:39;;;;;;;;;2.00;2.00;;;;;19.71;35.30;101124.88;5039382;28;45205;-38
2023/04/20 00:31:05;;;;;;;;;4.50;3.00;;;;;19.72;35.72;101131.03;5039503;28;45228;-38
2023/04/20 00:33:30;;;;;;;;;3.00;3.00;;;;;19.71;35.63;101127.53;5039583;28;45249;-37
2023/04/20 00:35:56;;;;;;;;;2.25;2.25;;;;;19.71;35.32;101118.78;5039029;28;46241;-36
2023/04/20 00:38:21;;;;;;;;;3.50;3.00;;;;;19.70;35.81;101117.09;5039235;28;45442;-38
2023/04/20 00:40:51;;;;;;;;;4.50;2.75;;;;;19.69;35.71;101121.47;5039512;28;45430;-37
2023/04/20 00:43:18;;;;;;;;;3.00;3.00;;;;;19.70;35.80;101114.47;5038096;28;45594;-38
2023/04/20 00:45:44;;;;;;;;;3.00;3.00;;;;;19.69;35.40;101108.31;5039314;28;46538;-37
2023/04/20 00:48:10;;;;;;;;;2.25;1.25;;;;;19.70;35.69;101109.19;5039076;28;45899;-38
2023/04/20 00:50:36;;;;;;;;;4.00;2.00;;;;;19.67;35.22;101104.94;5037829;28;45419;-38
2023/04/20 00:53:02;;;;;;;;;2.00;2.00;;;;;19.69;35.71;101108.31;5037990;28;45643;-37
2023/04/20 00:55:29;;;;;;;;;3.25;3.25;;;;;19.68;35.40;101103.16;5038908;28;45480;-37
2023/04/20 00:57:54;;;;;;;;;4.00;3.00;;;;;19.67;35.65;101093.56;5039061;28;45256;-37
2023/04/20 01:00:21;;;;;;;;;3.00;3.00;;;;;19.67;35.31;101099.69;5037558;28;45402;-37
2023/04/20 01:02:47;;;;;;;;;2.75;2.50;;;;;19.68;35.70;101095.25;5039473;28;45505;-37
2023/04/20 01:05:12;;;;;;;;;3.00;3.00;;;;;19.68;35.83;101090.00;5038615;28;46699;-37
2023/04/20 01:07:38;;;;;;;;;2.75;2.00;;;;;19.66;35.74;101097.09;5037477;28;45589;-38
2023/04/20 01:10:05;;;;;;;;;2.50;2.50;;;;;19.67;35.11;101088.28;5038847;28;45369;-38
2023/04/20 01:12:30;;;;;;;;;2.75;1.75;;;;;19.67;35.82;101093.56;5038955;28;45415;-38
2023/04/20 01:14:56;;;;;;;;;2.50;2.50;;;;;19.67;35.72;101094.44;5038116;28;49782;-37
2023/04/20 01:17:23;;;;;;;;;3.50;2.25;;;;;19.65;35.23;101091.00;5038582;28;45374;-37
2023/04/20 01:19:49;;;;;;;;;5.00;3.50;;;;;19.66;35.13;101103.22;5038794;28;45374;-37
2023/04/20 01:22:17;;;;;;;;;2.00;2.00;;;;;19.66;35.46;101094.47;5039033;28;45282;-38
2023/04/20 01:24:42;;;;;;;;;4.00;3.00;;;;;19.64;35.28;101091.94;5036869;28;45729;-38
2023/04/20 01:27:08;;;;;;;;;2.50;2.50;;;;;19.65;35.28;101088.38;5038348;28;45284;-37
2023/04/20 01:29:33;;;;;;;;;2.25;2.25;;;;;19.66;35.52;101091.84;5038613;28;45314;-37
2023/04/20 01:32:03;;;;;;;;;3.00;3.00;;;;;19.65;35.33;101080.50;5038750;28;45182;-37
2023/04/20 01:34:28;;;;;;;;;4.00;4.00;;;;;19.65;35.45;101085.75;5038195;28;46538;-37
2023/04/20 01:36:53;;;;;;;;;3.00;2.25;;;;;19.63;35.26;101070.03;5036995;28;45324;-37
2023/04/20 01:39:19;;;;;;;;;3.00;3.00;;;;;19.63;35.23;101066.56;5038545;28;45463;-38
2023/04/20 01:41:44;;;;;;;;;2.00;2.00;;;;;19.63;35.76;101071.81;5038770;28;45564;-39
2023/04/20 01:44:10;;;;;;;;;2.00;2.00;;;;;19.63;35.49;101066.56;5036784;28;48726;-37
2023/04/20 01:46:39;;;;;;;;;2.75;2.75;;;;;19.64;35.46;101068.28;5036819;28;46341;-37
2023/04/20 01:49:05;;;;;;;;;2.50;2.25;;;;;19.62;35.45;101065.69;5038262;28;45252;-37
2023/04/20 01:51:31;;;;;;;;;3.25;3.25;;;;;19.63;35.32;101063.94;5038496;28;45890;-37
2023/04/20 01:53:57;;;;;;;;;4.00;2.00;;;;;19.62;35.64;101060.44;5037927;28;46352;-37
2023/04/20 01:56:22;;;;;;;;;3.00;2.50;;;;;19.61;35.44;101060.50;5037910;28;45423;-37
2023/04/20 01:58:48;;;;;;;;;2.50;1.25;;;;;19.62;35.43;101059.59;5038082;28;45285;-37
2023/04/20 02:01:13;;;;;;;;;2.33;2.33;;;;;19.62;35.32;101063.06;5037232;28;54577;-37
2023/04/20 02:03:38;;;;;;;;;4.00;3.00;;;;;19.61;35.43;101063.16;5017409;28;51864;-38
2023/04/20 02:06:04;;;;;;;;;3.25;3.00;;;;;19.61;35.46;101065.78;5017949;28;45337;-37
2023/04/20 02:08:29;;;;;;;;;4.00;3.00;;;;;19.61;35.57;101063.16;5018045;28;45415;-39
2023/04/20 02:10:54;;;;;;;;;4.00;3.00;;;;;19.60;35.07;101062.31;5018122;28;45190;-39
2023/04/20 02:13:20;;;;;;;;;3.75;3.25;;;;;19.59;35.60;101063.22;5018025;28;45485;-38
2023/04/20 02:15:45;;;;;;;;;2.00;2.00;;;;;19.60;35.51;101064.06;5017696;28;45268;-37
2023/04/20 02:18:10;;;;;;;;;2.00;2.00;;;;;19.59;35.14;101072.88;5017489;28;47355;-37
2023/04/20 02:20:36;;;;;;;;;3.75;3.00;;;;;19.59;35.51;101073.75;5017874;28;45451;-39
2023/04/20 02:23:01;;;;;;;;;5.50;2.00;;;;;19.59;35.49;101070.25;5017186;28;46325;-39
2023/04/20 02:25:27;;;;;;;;;4.00;2.00;;;;;19.59;35.48;101065.00;5017553;28;45192;-40
2023/04/20 02:27:52;;;;;;;;;4.50;3.25;;;;;19.58;35.09;101064.16;5017088;28;45731;-40
2023/04/20 02:30:17;;;;;;;;;2.00;2.00;;;;;19.57;35.28;101072.09;5017856;28;45193;-38
2023/04/20 02:32:43;;;;;;;;;3.00;3.00;;;;;19.58;35.56;101071.16;5017402;28;45425;-37
2023/04/20 02:35:08;;;;;;;;;4.00;2.00;;;;;19.59;35.27;101067.63;5017004;28;45347;-37
2023/04/20 02:37:34;;;;;;;;;2.75;1.50;;;;;19.58;35.22;101069.41;5016386;28;45214;-37
2023/04/20 02:39:59;;;;;;;;;1.75;1.75;;;;;19.57;35.14;101072.09;5017606;28;45435;-37
2023/04/20 02:42:24;;;;;;;;;5.75;3.00;;;;;19.57;35.49;101069.47;5017349;28;46284;-37
2023/04/20 02:44:51;;;;;;;;;5.25;2.00;;;;;19.56;35.29;101070.41;5017513;28;45363;-37
2023/04/20 02:47:17;;;;;;;;;2.00;2.00;;;;;19.56;35.27;101071.25;5017288;28;45308;-37
2023/04/20 02:49:42;;;;;;;;;5.00;3.00;;;;;19.56;35.01;101079.13;5017295;28;45526;-37
2023/04/20 02:52:07;;;;;;;;;3.00;3.00;;;;;19.56;35.23;101078.31;5017185;28;46536;-37
2023/04/20 02:54:33;;;;;;;;;2.75;2.00;;;;;19.55;35.06;101069.53;5017193;28;45347;-37
2023/04/20 02:56:58;;;;;;;;;2.75;2.00;;;;;19.54;35.28;101077.53;5017261;28;45359;-36
2023/04/20 02:59:24;;;;;;;;;3.00;3.00;;;;;19.53;35.28;101076.66;5017585;28;45402;-37
2023/04/20 03:01:49;;;;;;;;;2.00;2.00;;;;;19.54;35.23;101074.88;5016954;28;45340;-38
2023/04/20 03:04:14;;;;;;;;;2.00;2.00;;;;;19.53;34.75;101071.38;5016604;28;53056;-43
2023/04/20 03:06:41;;;;;;;;;2.25;2.25;;;;;19.54;34.70;101072.25;5017107;28;45401;-37
2023/04/20 03:09:07;;;;;;;;;4.00;3.00;;;;;19.54;34.93;101083.63;5017232;28;45430;-37
2023/04/20 03:11:33;;;;;;;;;3.00;2.25;;;;;19.54;35.04;101077.53;5016899;28;45559;-37
2023/04/20 03:13:58;;;;;;;;;2.00;2.00;;;;;19.54;35.00;101072.25;5016891;28;45327;-37
2023/04/20 03:16:23;;;;;;;;;3.25;3.25;;;;;19.53;35.16;101081.06;5017102;28;45269;-38
2023/04/20 03:18:49;;;;;;;;;2.33;2.00;;;;;19.52;34.98;101080.19;5016600;28;47413;-37
2023/04/20 03:21:15;;;;;;;;;3.25;2.00;;;;;19.54;34.64;101081.00;5016480;28;46268;-37
2023/04/20 03:23:40;;;;;;;;;2.50;2.50;;;;;19.54;35.00;101078.34;5016665;28;45482;-37
2023/04/20 03:26:05;;;;;;;;;1.75;1.75;;;;;19.52;34.51;101084.63;5016870;28;45355;-37
2023/04/20 03:28:31;;;;;;;;;2.50;2.00;;;;;19.53;34.98;101083.69;5016882;28;45456;-37
2023/04/20 03:30:56;;;;;;;;;1.00;1.00;;;;;19.53;34.75;101079.28;5016694;28;45335;-37
2023/04/20 03:33:21;;;;;;;;;2.00;2.00;;;;;19.51;34.76;101073.25;5016850;28;45294;-37
2023/04/20 03:35:47;;;;;;;;;2.75;2.75;;;;;19.52;34.95;101074.09;5016669;28;45427;-39
2023/04/20 03:38:12;;;;;;;;;1.75;1.75;;;;;19.51;34.87;101073.25;5016702;28;45414;-37
2023/04/20 03:40:37;;;;;;;;;3.75;1.50;;;;;19.50;34.31;101070.69;5016185;28;46266;-40
2023/04/20 03:43:03;;;;;;;;;5.00;2.00;;;;;19.49;34.88;101069.84;5016317;28;45467;-37
2023/04/20 03:45:28;;;;;;;;;4.00;2.00;;;;;19.50;34.67;101070.69;5016209;28;48579;-37
2023/04/20 03:47:53;;;;;;;;;2.00;2.00;;;;;19.47;34.97;101062.03;5016865;28;45252;-37
2023/04/20 03:50:19;;;;;;;;;1.00;1.00;;;;;19.50;34.48;101070.69;5016209;28;45371;-37
2023/04/20 03:52:44;;;;;;;;;2.00;2.00;;;;;19.49;34.76;101063.72;5016196;28;48384;-36
2023/04/20 03:55:09;;;;;;;;;2.00;2.00;;;;;19.48;34.38;101068.16;5016384;28;45447;-37
2023/04/20 03:57:35;;;;;;;;;2.00;2.00;;;;;19.48;34.89;101073.41;5016501;28;45215;-37
2023/04/20 04:00:00;;;;;;;;;2.00;2.00;;;;;19.49;34.71;101079.50;5015987;28;45442;-36
2023/04/20 04:02:25;;;;;;;;;3.00;2.00;;;;;19.48;34.65;101078.66;5016483;28;45313;-37
2023/04/20 04:04:51;;;;;;;;;3.75;2.00;;;;;19.48;34.92;101078.66;5015456;28;63988;-36
2023/04/20 04:07:16;;;;;;;;;4.00;3.00;;;;;19.47;34.66;101075.16;5015560;28;62012;-37
2023/04/20 04:09:41;;;;;;;;;2.00;2.00;;;;;19.45;34.80;101079.66;5015311;28;63867;-37
2023/04/20 04:12:07;;;;;;;;;2.50;2.50;;;;;19.46;34.44;101078.72;5016064;28;45523;-37
2023/04/20 04:14:33;;;;;;;;;4.75;3.00;;;;;19.46;34.73;101085.75;5015650;28;54461;-38
2023/04/20 04:16:59;;;;;;;;;4.75;3.00;;;;;19.46;34.56;101083.97;5016538;28;45499;-40
2023/04/20 04:19:24;;;;;;;;;3.00;3.00;;;;;19.46;34.49;101089.22;5015861;28;46134;-37
2023/04/20 04:21:49;;;;;;;;;3.00;3.00;;;;;19.47;34.54;101087.47;5016001;28;45265;-39
2023/04/20 04:24:15;;;;;;;;;3.75;2.00;;;;;19.44;34.44;101088.47;5014786;28;45489;-40
2023/04/20 04:26:41;;;;;;;;;2.25;2.25;;;;;19.46;34.50;101098.91;5016128;28;45555;-37
2023/04/20 04:29:06;;;;;;;;;3.00;2.00;;;;;19.44;34.60;101099.00;5014495;28;46277;-38
2023/04/20 04:31:31;;;;;;;;;2.00;2.00;;;;;19.44;34.20;101099.00;5015795;28;45398;-38
2023/04/20 04:33:57;;;;;;;;;2.00;2.00;;;;;19.44;34.53;101099.00;5015878;28;50600;-38
2023/04/20 04:36:23;;;;;;;;;3.00;2.00;;;;;19.43;34.24;101099.03;5016133;28;45387;-38
2023/04/20 04:38:48;;;;;;;;;3.00;3.00;;;;;19.44;34.05;101104.25;5015505;28;46567;-38
2023/04/20 04:41:14;;;;;;;;;1.00;1.00;;;;;19.43;34.57;101110.41;5015607;28;45474;-38
2023/04/20 04:43:40;;;;;;;;;1.00;1.00;;;;;19.43;34.07;101113.06;5015384;28;45471;-39
2023/04/20 04:46:10;;;;;;;;;3.00;1.25;;;;;19.41;34.50;101109.63;5015880;28;45664;-41
2023/04/20 04:48:36;;;;;;;;;5.00;2.00;;;;;19.41;33.78;101104.38;5014233;28;45594;-39
2023/04/20 04:51:02;;;;;;;;;3.00;2.00;;;;;19.41;33.85;101117.53;5017641;28;45810;-40
2023/04/20 04:53:28;;;;;;;;;3.00;3.00;;;;;19.40;34.43;101105.28;5019674;28;45429;-41
2023/04/20 04:55:53;;;;;;;;;3.00;3.00;;;;;19.40;33.88;101112.34;5018823;28;45303;-38
2023/04/20 04:58:18;;;;;;;;;2.00;2.00;;;;;19.40;33.79;101115.81;5018354;28;62261;-41
2023/04/20 05:00:44;;;;;;;;;5.00;2.00;;;;;19.42;33.84;101115.72;5017356;28;45380;-41
2023/04/20 05:03:09;;;;;;;;;3.00;3.00;;;;;19.41;34.12;101125.41;5017962;28;45431;-41
2023/04/20 05:05:35;;;;;;;;;1.25;1.25;;;;;19.42;33.88;101128.88;5019151;28;45589;-39
2023/04/20 05:08:00;;;;;;;;;2.00;2.00;;;;;19.42;33.91;101123.63;5019051;28;46468;-39
2023/04/20 05:10:25;;;;;;;;;4.00;3.00;;;;;19.41;34.05;101122.78;5018733;28;45426;-38
2023/04/20 05:12:51;;;;;;;;;2.00;2.00;;;;;19.40;34.20;101121.06;5018829;28;45532;-40
2023/04/20 05:15:17;;;;;;;;;2.00;2.00;;;;;19.39;33.40;101129.88;5018934;28;45292;-38
2023/04/20 05:17:42;;;;;;;;;3.00;3.00;;;;;19.39;33.89;101122.00;5018586;28;46011;-38
2023/04/20 05:20:09;;;;;;;;;2.00;2.00;;;;;19.39;33.56;101127.25;5018732;28;45376;-37
2023/04/20 05:22:35;;;;;;;;;2.75;2.00;;;;;19.38;33.70;101138.69;5018676;28;45365;-38
2023/04/20 05:25:00;;;;;;;;;3.50;3.50;;;;;19.39;33.75;101139.56;5019112;28;45500;-38
2023/04/20 05:27:25;;;;;;;;;3.00;2.25;;;;;19.38;33.49;101130.78;5018394;28;46599;-38
2023/04/20 05:29:51;;;;;;;;;3.50;3.00;;;;;19.38;33.75;101141.31;5018216;28;45331;-38
2023/04/20 05:32:16;;;;;;;;;2.00;2.00;;;;;19.37;33.58;101146.66;5018293;28;48365;-38
2023/04/20 05:34:41;;;;;;;;;2.00;2.00;;;;;19.38;33.72;101151.81;5017367;28;45565;-37
2023/04/20 05:37:06;;;;;;;;;2.00;2.00;;;;;19.38;33.68;101162.34;5017610;28;63483;-42
2023/04/20 05:39:32;;;;;;;;;2.00;2.00;;;;;19.37;33.40;101155.38;5018503;28;45336;-40
2023/04/20 05:41:57;;;;;;;;;3.00;3.00;;;;;19.36;33.24;101153.66;5018497;28;45299;-38
2023/04/20 05:44:22;;;;;;;;;3.75;3.00;;;;;19.37;33.31;101149.28;5017175;28;45557;-37
2023/04/20 05:46:49;;;;;;;;;2.75;2.75;;;;;19.35;33.22;101143.22;5018178;28;46553;-37
2023/04/20 05:49:14;;;;;;;;;3.25;2.00;;;;;19.36;33.30;101153.66;5018266;28;46379;-37
2023/04/20 05:51:39;;;;;;;;;2.50;2.00;;;;;19.36;33.13;101155.44;5018253;28;45855;-38
2023/04/20 05:54:05;;;;;;;;;3.50;2.75;;;;;19.35;33.28;101149.31;5018377;28;45337;-37
2023/04/20 05:56:30;;;;;;;;;2.25;2.25;;;;;19.35;33.62;101146.69;5018240;28;47623;-37
2023/04/20 05:58:56;;;;;;;;;2.33;2.33;;;;;19.36;33.24;101150.19;5017504;28;56173;-38
2023/04/20 06:01:21;;;;;;;;;3.00;3.00;;;;;19.35;33.34;101162.47;5017128;28;45245;-38
2023/04/20 06:03:48;;;;;;;;;2.50;2.50;;;;;19.35;33.34;101154.56;5017862;28;45578;-37
2023/04/20 06:06:14;;;;;;;;;4.50;3.00;;;;;19.36;33.08;101158.06;5017794;28;46208;-38
2023/04/20 06:08:39;;;;;;;;;2.00;2.00;;;;;19.35;33.67;101156.38;5017789;28;45308;-37
2023/04/20 06:11:05;;;;;;;;;3.00;3.00;;;;;19.36;33.50;101150.19;5018329;28;45376;-38
2023/04/20 06:13:30;;;;;;;;;2.00;2.00;;;;;19.35;33.18;101146.69;5018453;28;45348;-38
2023/04/20 06:15:56;;;;;;;;;3.00;3.00;;;;;19.38;33.60;101138.69;5017603;28;47074;-38
2023/04/20 06:18:21;;;;;;;;;2.00;2.00;;;;;19.39;33.75;101143.00;5017274;28;55978;-38
2023/04/20 06:20:46;;;;;;;;;2.00;2.00;;;;;19.40;33.27;101139.47;5017513;28;45253;-39
2023/04/20 06:23:12;;;;;;;;;2.00;2.00;;;;;19.40;33.00;101138.63;5017887;28;45307;-37
2023/04/20 06:25:38;;;;;;;;;2.00;2.00;;;;;19.39;32.85;101136.91;5017581;28;46437;-38
2023/04/20 06:28:04;;;;;;;;;3.00;3.00;;;;;19.40;33.55;101144.72;5017949;28;45346;-38
2023/04/20 06:30:29;;;;;;;;;3.50;2.00;;;;;19.42;33.27;101142.88;5017652;28;45303;-38
2023/04/20 06:32:55;;;;;;;;;2.50;2.00;;;;;19.43;32.99;101141.09;5017943;28;45557;-38
2023/04/20 06:35:22;;;;;;;;;2.00;2.00;;;;;19.44;33.10;101146.31;5017391;28;47810;-40
2023/04/20 06:37:48;;;;;;;;;2.75;2.00;;;;;19.45;32.91;101152.41;5017631;28;45271;-38
2023/04/20 06:40:13;;;;;;;;;2.75;2.75;;;;;19.46;33.29;101146.22;5017654;28;45277;-38
2023/04/20 06:42:38;;;;;;;;;3.00;3.00;;;;;19.47;33.32;101151.41;5016520;28;45522;-38
2023/04/20 06:45:05;;;;;;;;;2.75;2.75;;;;;19.46;33.17;101149.69;5017535;28;47392;-39
2023/04/20 06:47:31;;;;;;;;;3.00;2.00;;;;;19.50;33.25;101154.81;5017039;28;46071;-39
2023/04/20 06:50:00;;;;;;;;;4.00;2.25;;;;;19.51;33.16;101170.53;5017199;28;45485;-39
2023/04/20 06:52:26;;;;;;;;;4.00;4.00;;;;;19.53;33.49;101149.41;5017433;28;45358;-37
2023/04/20 06:54:52;;;;;;;;;4.00;4.00;;;;;19.52;33.35;101145.09;5017079;28;46332;-40
2023/04/20 06:57:18;;;;;;;;;5.25;3.50;;;;;19.54;33.16;101145.88;5015989;28;45693;-38
2023/04/20 06:59:43;;;;;;;;;2.25;2.25;;;;;19.53;33.19;101149.41;5017247;28;45466;-38
2023/04/20 07:02:08;;;;;;;;;4.00;2.75;;;;;19.55;33.71;101147.59;5017410;28;45352;-37
2023/04/20 07:04:34;;;;;;;;;4.50;3.00;;;;;19.55;33.32;101142.31;5016501;28;63715;-38
2023/04/20 07:06:59;;;;;;;;;2.50;2.50;;;;;19.56;33.09;101149.28;5016973;28;45395;-38
2023/04/20 07:09:25;;;;;;;;;6.00;3.50;;;;;19.57;33.25;101140.44;5017146;28;45392;-37
2023/04/20 07:11:51;;;;;;;;;6.00;2.25;;;;;19.59;33.57;101157.00;5017076;28;45542;-37
2023/04/20 07:14:16;;;;;;;;;6.75;4.00;;;;;19.59;33.46;101164.91;5016364;28;45390;-37
2023/04/20 07:16:41;;;;;;;;;3.33;3.33;;;;;19.59;33.40;101152.63;5016176;28;63017;-38
2023/04/20 07:19:07;;;;;;;;;2.50;2.50;;;;;19.59;33.20;101159.63;5017028;28;45394;-39
2023/04/20 07:21:32;;;;;;;;;3.00;3.00;;;;;19.60;33.17;101158.72;5016785;28;45383;-37
2023/04/20 07:23:57;;;;;;;;;3.00;3.00;;;;;19.60;33.11;101146.44;5016324;28;54483;-41
2023/04/20 07:26:24;;;;;;;;;3.00;2.00;;;;;19.63;33.25;101151.53;5016569;28;45379;-41
2023/04/20 07:28:50;;;;;;;;;3.50;3.50;;;;;19.63;33.70;101148.91;5016779;28;45442;-42
2023/04/20 07:31:16;;;;;;;;;3.75;3.75;;;;;19.66;33.68;101145.31;5016782;28;45497;-42
2023/04/20 07:33:42;;;;;;;;;3.00;3.00;;;;;19.67;33.51;101147.00;5016489;28;46625;-44
2023/04/20 07:36:07;;;;;;;;;2.50;2.00;;;;;19.68;33.75;101143.44;5016703;28;45284;-43
2023/04/20 07:38:33;;;;;;;;;4.00;2.50;;;;;19.74;33.97;101147.56;5015300;28;45302;-40
2023/04/20 07:40:58;;;;;;;;;3.25;3.00;;;;;19.75;33.44;101136.09;5016703;28;45435;-37
2023/04/20 07:43:23;;;;;;;;;5.00;4.00;;;;;19.77;33.55;101143.03;5016033;28;53065;-38
2023/04/20 07:45:48;;;;;;;;;4.25;4.25;;;;;19.77;33.73;101144.78;5016224;28;45332;-38
2023/04/20 07:48:14;;;;;;;;;3.00;3.00;;;;;19.78;33.78;101143.88;5016448;28;45289;-39
2023/04/20 07:50:39;;;;;;;;;3.75;3.00;;;;;19.78;33.92;101134.22;5016852;28;45589;-38
2023/04/20 07:53:05;;;;;;;;;2.25;2.00;;;;;19.80;33.62;101141.16;5015809;28;46479;-38
2023/04/20 07:55:30;;;;;;;;;3.00;3.00;;;;;19.80;33.77;101139.38;5015150;28;45485;-40
2023/04/20 07:57:56;;;;;;;;;2.50;2.50;;;;;19.81;33.48;101127.94;5015340;28;45971;-39
2023/04/20 08:00:23;;;;;;;;;3.00;3.00;;;;;19.82;33.77;101123.53;5015834;28;45332;-41
2023/04/20 08:02:48;;;;;;;;;2.25;2.25;;;;;19.83;33.94;101134.00;5016090;28;46545;-38
2023/04/20 08:05:13;;;;;;;;;3.00;2.67;;;;;19.84;33.53;101132.19;5015705;28;53387;-37
2023/04/20 08:07:39;;;;;;;;;4.00;4.00;;;;;19.86;33.93;101127.75;5016616;28;45466;-39
2023/04/20 08:10:06;;;;;;;;;3.50;3.50;;;;;19.84;33.82;101127.81;5015841;28;45359;-39
2023/04/20 08:12:31;;;;;;;;;5.75;3.75;;;;;19.85;33.60;101123.38;5015685;28;46553;-38
2023/04/20 08:15:00;;;;;;;;;4.50;4.00;;;;;19.84;33.53;101126.94;5015840;28;45416;-39
2023/04/20 08:17:28;;;;;;;;;4.00;4.00;;;;;19.84;33.48;101134.84;5016005;28;45356;-38
2023/04/20 08:19:54;;;;;;;;;5.00;3.50;;;;;19.83;33.18;101130.50;5016225;28;45473;-37
2023/04/20 08:22:19;;;;;;;;;4.00;4.00;;;;;19.82;33.41;101123.53;5015760;28;45375;-41
2023/04/20 08:24:45;;;;;;;;;4.50;4.25;;;;;19.82;32.97;101115.63;5016170;28;45426;-38
2023/04/20 08:27:13;;;;;;;;;5.50;4.00;;;;;19.81;33.35;101119.19;5019826;28;45318;-38
2023/04/20 08:29:38;;;;;;;;;3.50;3.50;;;;;19.80;32.95;101109.59;5019972;28;45186;-38
2023/04/20 08:32:07;;;;;;;;;5.50;4.00;;;;;19.80;33.28;101105.19;5019271;28;45202;-37
2023/04/20 08:34:33;;;;;;;;;4.00;4.00;;;;;19.81;32.77;101108.66;5019193;28;45458;-38
2023/04/20 09:39:20;;;;;;;;;7.75;3.75;;;;;19.93;33.17;101048.47;5048437;28;45870;-39
2023/04/20 09:41:47;;;;;;;;;5.25;4.00;;;;;19.95;33.45;101044.91;5045249;28;45497;-37
2023/04/20 09:44:14;;;;;;;;;0.75;0.25;;;;;19.93;33.76;101043.22;5040180;28;45578;-37
2023/04/20 09:46:40;;;;;;;;;3.00;3.00;;;;;19.94;33.53;101030.91;5057048;28;46462;-40
2023/04/20 09:49:08;;;;;;;;;4.50;3.50;;;;;19.95;33.05;101040.50;5054222;28;45283;-37
2023/04/20 09:51:35;;;;;;;;;4.00;4.00;;;;;19.97;33.41;101030.75;5038975;28;45350;-38
2023/04/20 09:54:02;;;;;;;;;6.00;4.50;;;;;19.96;33.02;101031.69;5039084;28;45299;-40
2023/04/20 09:56:29;;;;;;;;;4.00;4.00;;;;;19.96;32.94;101020.28;5036830;28;46225;-41
2023/04/20 09:58:55;;;;;;;;;5.00;4.00;;;;;19.96;32.98;101017.66;5038444;28;45276;-40
2023/04/20 10:01:22;;;;;;;;;5.50;4.00;;;;;19.97;33.13;101012.34;5038146;28;45400;-37
2023/04/20 10:03:48;;;;;;;;;5.00;5.00;;;;;19.96;33.01;101010.63;5038917;28;46064;-36
2023/04/20 10:06:21;;;;;;;;;5.00;4.00;;;;;19.98;33.23;101014.03;5037882;28;45483;-42
2023/04/20 10:08:48;;;;;;;;;5.75;5.00;;;;;19.95;33.02;101008.94;5037585;28;45379;-40
2023/04/20 10:11:33;;;;;;;;;6.75;5.00;;;;;19.98;33.10;101007.91;5037961;28;45380;-38
2023/04/20 10:14:16;;;;;;;;;4.75;4.00;;;;;19.97;32.70;101001.81;5038425;28;45360;-36
2023/04/20 10:16:43;;;;;;;;;4.25;4.00;;;;;19.97;32.51;101011.47;5037121;28;45663;-37
2023/04/20 10:19:08;;;;;;;;;6.00;5.00;;;;;19.97;32.64;101012.34;5038073;28;46463;-38
2023/04/20 10:21:47;;;;;;;;;8.00;6.00;;;;;19.98;32.88;101013.19;5052940;28;45565;-37
2023/04/20 10:24:14;;;;;;;;;6.25;5.75;;;;;20.00;32.79;101000.81;5040287;28;45376;-38
2023/04/20 10:26:42;;;;;;;;;4.25;4.25;;;;;19.98;32.87;101011.41;5038945;28;47004;-40
2023/04/20 10:29:08;;;;;;;;;5.75;5.75;;;;;19.98;33.10;101008.78;5038284;28;45958;-38
2023/04/20 10:31:38;;;;;;;;;9.50;6.25;;;;;19.98;32.86;101008.78;5039582;28;45353;-37
2023/04/20 10:34:04;;;;;;;;;4.75;4.75;;;;;19.98;32.81;101003.53;5040405;28;45557;-38
2023/04/20 10:36:35;;;;;;;;;5.75;5.00;;;;;19.97;32.95;100995.69;5050308;28;46222;-38
2023/04/20 10:39:13;;;;;;;;;6.75;5.75;;;;;19.96;32.74;100991.34;5049525;28;45193;-39
2023/04/20 10:41:51;;;;;;;;;5.00;5.00;;;;;19.94;32.93;100986.19;5048480;28;45248;-41
2023/04/20 10:44:16;;;;;;;;;7.50;6.00;;;;;19.93;32.76;100989.72;5039151;28;45276;-40
2023/04/20 10:46:41;;;;;;;;;12.00;8.00;;;;;19.93;32.45;101000.25;5037363;28;47055;-41
2023/04/20 10:49:07;;;;;;;;;8.50;7.00;;;;;19.92;32.71;100981.00;5036042;28;64053;-39
2023/04/20 10:51:33;;;;;;;;;13.50;11.50;;;;;19.91;32.76;100981.94;5037511;28;45324;-40
2023/04/20 10:54:04;;;;;;;;;13.25;11.50;;;;;19.87;32.79;100979.53;5036737;28;45962;-40
2023/04/20 10:56:45;;;;;;;;;10.50;8.00;;;;;19.89;33.00;100977.69;5037322;28;47231;-40
2023/04/20 10:59:13;;;;;;;;;12.25;10.00;;;;;19.89;32.34;100982.94;5037430;28;45849;-40
2023/04/20 11:01:39;;;;;;;;;11.25;10.75;;;;;19.87;32.69;100984.78;5038590;28;45334;-40
2023/04/20 11:04:06;;;;;;;;;11.75;7.25;;;;;19.84;32.10;100969.13;5061680;28;44887;-39
2023/04/20 11:06:32;;;;;;;;;10.50;10.50;;;;;19.85;31.99;100978.72;5055711;28;46294;-37
2023/04/20 11:08:57;;;;;;;;;14.25;9.00;;;;;19.82;32.71;100971.84;5036155;28;45851;-37
2023/04/20 11:11:26;;;;;;;;;10.25;8.75;;;;;19.80;32.26;100985.97;5036933;28;45347;-38
2023/04/20 11:13:52;;;;;;;;;14.25;10.25;;;;;19.78;32.79;100979.03;5037035;28;45850;-37
2023/04/20 11:16:18;;;;;;;;;12.25;11.00;;;;;19.77;32.47;100979.97;5036793;28;47356;-37
2023/04/20 11:18:52;;;;;;;;;13.00;10.75;;;;;19.77;32.26;100974.72;5036641;28;46079;-38
2023/04/20 11:21:18;;;;;;;;;12.75;8.25;;;;;19.76;32.58;100978.25;5036456;28;45226;-38
2023/04/20 11:23:43;;;;;;;;;8.50;8.50;;;;;19.77;32.83;100972.06;5036657;28;45652;-37
2023/04/20 11:26:09;;;;;;;;;11.50;10.75;;;;;19.78;32.75;100965.91;5036764;28;45390;-38
2023/04/20 11:28:35;;;;;;;;;8.00;8.00;;;;;19.78;33.13;100959.75;5036808;28;45722;-40
2023/04/20 11:31:01;;;;;;;;;13.50;10.75;;;;;19.82;32.97;100957.81;5036685;28;45460;-39
2023/04/20 11:33:28;;;;;;;;;9.75;8.50;;;;;19.83;32.98;100960.41;5037014;28;45432;-41
2023/04/20 11:35:55;;;;;;;;;14.50;10.00;;;;;19.83;33.07;100954.28;5036701;28;45326;-39
2023/04/20 11:38:27;;;;;;;;;9.25;7.50;;;;;19.84;32.76;100950.72;5038307;28;45339;-38
2023/04/20 11:40:52;;;;;;;;;10.75;8.25;;;;;19.84;32.64;100950.72;5042981;28;45363;-37
2023/04/20 11:43:17;;;;;;;;;8.00;7.00;;;;;19.85;32.90;100953.25;5042769;28;45381;-37
2023/04/20 11:45:43;;;;;;;;;9.75;8.00;;;;;19.87;32.52;100948.81;5044001;28;45571;-36
2023/04/20 11:48:08;;;;;;;;;9.75;7.75;;;;;19.88;32.91;100954.94;5044654;28;45311;-36
2023/04/20 11:50:34;;;;;;;;;10.00;8.00;;;;;19.91;32.78;100952.13;5042849;28;45322;-36
2023/04/20 11:53:01;;;;;;;;;7.00;7.00;;;;;19.90;32.91;100958.31;5073915;27;45303;-37
2023/04/20 11:55:26;;;;;;;;;7.25;6.25;;;;;19.90;32.50;100948.66;5040616;28;45638;-36
2023/04/20 11:57:51;;;;;;;;;11.00;9.00;;;;;19.89;32.93;100946.97;5037165;28;45279;-36
2023/04/20 12:00:18;;;;;;;;;8.50;7.75;;;;;19.88;32.80;100949.69;5051309;28;45422;-37
2023/04/20 12:02:43;;;;;;;;;10.50;8.00;;;;;19.88;32.79;100945.25;5057991;28;45156;-37
2023/04/20 12:05:10;;;;;;;;;8.50;7.25;;;;;19.88;32.60;100944.41;5058936;28;46112;-40
2023/04/20 12:07:35;;;;;;;;;6.50;6.00;;;;;19.86;32.90;100941.00;5051865;28;45213;-41
2023/04/20 12:10:00;;;;;;;;;8.00;7.75;;;;;19.86;32.87;100941.00;5055571;28;45422;-41
2023/04/20 12:12:25;;;;;;;;;7.33;7.33;;;;;19.84;33.41;100933.16;5049615;28;45291;-37
2023/04/20 12:14:51;;;;;;;;;6.75;6.75;;;;;19.86;33.28;100935.75;5035576;28;46560;-38
2023/04/20 12:17:16;;;;;;;;;8.00;7.00;;;;;19.85;33.13;100934.84;5034850;28;54288;-36
2023/04/20 12:19:41;;;;;;;;;7.00;7.00;;;;;19.83;33.13;100923.56;5035463;28;45769;-35
2023/04/20 12:22:07;;;;;;;;;9.50;6.00;;;;;19.84;33.15;100922.66;5036306;28;45506;-35